createdAt,value
2023-04-19T00:01:26.881Z,0.20
2023-04-19T00:03:55.014Z,0.27
2023-04-19T00:06:23.844Z,0.30
2023-04-19T00:08:53.560Z,0.20
2023-04-19T00:11:21.759Z,0.20
2023-04-19T00:13:50.424Z,0.20
2023-04-19T00:16:18.730Z,0.20
2023-04-19T00:18:46.878Z,0.20
2023-04-19T00:21:14.794Z,0.20
2023-04-19T00:23:42.931Z,0.20
2023-04-19T00:26:15.607Z,0.20
2023-04-19T00:28:43.952Z,0.20
2023-04-19T00:31:12.151Z,0.30
2023-04-19T00:33:40.095Z,0.20
2023-04-19T00:36:08.653Z,0.20
2023-04-19T00:38:36.678Z,0.20
2023-04-19T00:41:04.693Z,0.20
2023-04-19T00:43:34.252Z,0.20
2023-04-19T00:46:05.328Z,0.30
2023-04-19T00:48:34.183Z,0.20
2023-04-19T00:51:02.621Z,0.20
2023-04-19T00:53:30.639Z,0.20
2023-04-19T00:56:01.678Z,0.20
2023-04-19T00:58:31.466Z,0.20
2023-04-19T01:01:01.015Z,0.20
2023-04-19T01:03:29.696Z,0.20
2023-04-19T01:05:58.299Z,0.20
2023-04-19T01:08:26.255Z,0.20
2023-04-19T01:10:54.440Z,0.20
2023-04-19T01:13:22.497Z,0.20
2023-04-19T01:15:51.642Z,0.20
2023-04-19T01:18:21.952Z,0.30
2023-04-19T01:20:49.930Z,0.30
2023-04-19T01:23:19.285Z,0.20
2023-04-19T01:25:47.901Z,0.30
2023-04-19T01:28:15.865Z,0.20
2023-04-19T01:30:44.447Z,0.20
2023-04-19T01:33:12.583Z,0.20
2023-04-19T01:35:40.559Z,0.20
2023-04-19T01:38:08.653Z,0.20
2023-04-19T01:40:37.948Z,0.20
2023-04-19T01:43:05.895Z,0.20
2023-04-19T01:45:34.337Z,0.20
2023-04-19T01:48:03.192Z,0.20
2023-04-19T01:50:31.103Z,0.20
2023-04-19T01:52:59.607Z,0.20
2023-04-19T01:55:28.101Z,0.20
2023-04-19T01:57:57.982Z,0.20
2023-04-19T02:00:26.396Z,0.20
2023-04-19T02:02:54.499Z,0.20
2023-04-19T02:05:23.969Z,0.20
2023-04-19T02:07:51.877Z,0.20
2023-04-19T02:10:19.916Z,0.20
2023-04-19T02:12:48.207Z,0.20
2023-04-19T02:15:17.525Z,0.20
2023-04-19T02:17:46.825Z,0.20
2023-04-19T02:20:14.884Z,0.20
2023-04-19T02:22:43.945Z,0.20
2023-04-19T02:25:12.151Z,0.20
2023-04-19T02:27:40.101Z,0.20
2023-04-19T02:30:10.528Z,0.20
2023-04-19T02:32:40.117Z,0.20
2023-04-19T02:35:08.930Z,0.20
2023-04-19T02:37:36.903Z,0.20
2023-04-19T02:40:05.904Z,0.20
2023-04-19T02:42:34.022Z,0.20
2023-04-19T02:45:01.990Z,0.20
2023-04-19T02:47:29.935Z,0.20
2023-04-19T02:49:59.921Z,0.20
2023-04-19T02:52:27.982Z,0.20
2023-04-19T02:54:56.004Z,0.20
2023-04-19T02:57:24.292Z,0.20
2023-04-19T02:59:52.203Z,0.20
2023-04-19T03:02:20.752Z,0.20
2023-04-19T03:04:49.270Z,0.20
2023-04-19T03:07:21.613Z,0.20
2023-04-19T03:09:49.616Z,0.20
2023-04-19T03:12:17.586Z,0.20
2023-04-19T03:14:45.684Z,0.20
2023-04-19T03:17:13.592Z,0.20
2023-04-19T03:19:41.524Z,0.20
2023-04-19T03:22:09.648Z,0.20
2023-04-19T03:24:38.890Z,0.30
2023-04-19T03:27:06.763Z,0.20
2023-04-19T03:29:35.144Z,0.20
2023-04-19T03:32:03.884Z,0.20
2023-04-19T03:34:31.907Z,0.13
2023-04-19T03:37:00.148Z,0.20
2023-04-19T03:39:28.310Z,0.20
2023-04-19T03:41:57.814Z,0.20
2023-04-19T03:44:26.510Z,0.20
2023-04-19T03:46:55.001Z,0.20
2023-04-19T03:49:23.290Z,0.20
2023-04-19T03:51:51.533Z,0.20
2023-04-19T03:54:19.584Z,0.27
2023-04-19T03:56:47.632Z,0.20
2023-04-19T03:59:16.967Z,0.20
2023-04-19T04:01:45.166Z,0.20
2023-04-19T04:04:13.377Z,0.20
2023-04-19T04:06:41.530Z,0.20
2023-04-19T04:09:09.534Z,0.20
2023-04-19T04:11:37.468Z,0.20
2023-04-19T04:14:06.363Z,0.20
2023-04-19T04:16:35.917Z,0.20
2023-04-19T04:19:03.941Z,0.20
2023-04-19T04:21:32.078Z,0.20
2023-04-19T04:24:02.017Z,0.20
2023-04-19T04:26:30.941Z,0.20
2023-04-19T04:28:59.112Z,0.20
2023-04-19T04:31:27.291Z,0.20
2023-04-19T04:33:56.855Z,0.20
2023-04-19T04:36:26.138Z,0.20
2023-04-19T04:38:57.208Z,0.20
2023-04-19T04:41:25.894Z,0.20
2023-04-19T04:44:08.387Z,0.20
2023-04-19T04:46:39.344Z,0.20
2023-04-19T04:49:08.786Z,0.20
2023-04-19T04:51:37.356Z,0.20
2023-04-19T04:54:05.699Z,0.20
2023-04-19T04:56:35.031Z,0.20
2023-04-19T04:59:03.653Z,0.20
2023-04-19T05:01:32.381Z,0.20
2023-04-19T05:04:00.649Z,0.20
2023-04-19T05:06:29.979Z,0.20
2023-04-19T05:08:57.932Z,0.20
2023-04-19T05:11:25.897Z,0.20
2023-04-19T05:13:53.921Z,0.20
2023-04-19T05:16:22.370Z,0.30
2023-04-19T05:18:52.485Z,0.20
2023-04-19T05:21:20.855Z,0.20
2023-04-19T05:23:50.338Z,0.30
2023-04-19T05:26:19.673Z,0.20
2023-04-19T05:28:47.664Z,0.20
2023-04-19T05:31:15.843Z,0.10
2023-04-19T05:33:43.801Z,0.20
2023-04-19T05:36:11.743Z,0.20
2023-04-19T05:38:39.998Z,0.20
2023-04-19T05:41:09.304Z,0.20
2023-04-19T05:43:37.215Z,0.20
2023-04-19T05:46:05.328Z,0.30
2023-04-19T05:48:33.194Z,0.30
2023-04-19T05:51:01.126Z,0.20
2023-04-19T05:53:29.170Z,0.10
2023-04-19T05:55:57.277Z,0.20
2023-04-19T05:58:27.216Z,0.20
2023-04-19T06:00:55.684Z,0.20
2023-04-19T06:03:23.835Z,0.20
2023-04-19T06:05:52.379Z,0.20
2023-04-19T06:08:20.484Z,0.20
2023-04-19T06:10:54.570Z,0.20
2023-04-19T06:13:26.246Z,0.30
2023-04-19T06:15:54.776Z,0.20
2023-04-19T06:18:22.904Z,0.20
2023-04-19T06:20:50.963Z,0.20
2023-04-19T06:23:19.509Z,0.20
2023-04-19T06:25:48.723Z,0.20
2023-04-19T06:28:17.103Z,0.23
2023-04-19T06:30:46.443Z,0.30
2023-04-19T06:33:14.618Z,0.20
2023-04-19T06:35:47.818Z,0.30
2023-04-19T06:38:15.862Z,0.20
2023-04-19T06:40:43.732Z,0.20
2023-04-19T06:43:11.745Z,0.20
2023-04-19T06:45:39.742Z,0.20
2023-04-19T06:48:09.257Z,0.20
2023-04-19T06:50:37.411Z,0.20
2023-04-19T06:53:05.814Z,0.30
2023-04-19T06:55:33.753Z,0.20
2023-04-19T06:58:01.672Z,0.30
2023-04-19T07:00:29.738Z,0.30
2023-04-19T07:03:00.139Z,0.20
2023-04-19T07:05:33.132Z,0.30
2023-04-19T07:08:01.404Z,0.40
2023-04-19T07:10:29.393Z,0.50
2023-04-19T07:12:57.323Z,0.50
2023-04-19T07:15:25.528Z,0.50
2023-04-19T07:17:53.544Z,0.60
2023-04-19T07:20:22.046Z,0.60
2023-04-19T07:22:51.317Z,0.60
2023-04-19T07:25:19.557Z,0.60
2023-04-19T07:27:47.491Z,0.60
2023-04-19T07:30:15.496Z,0.60
2023-04-19T07:32:43.448Z,0.60
2023-04-19T07:35:11.507Z,0.70
2023-04-19T07:37:39.682Z,0.60
2023-04-19T07:40:10.637Z,0.70
2023-04-19T07:42:38.956Z,0.60
2023-04-19T07:45:08.947Z,0.60
2023-04-19T07:47:36.950Z,0.60
2023-04-19T07:50:07.707Z,0.70
2023-04-19T07:52:35.748Z,0.70
2023-04-19T07:55:03.671Z,0.60
2023-04-19T07:57:33.016Z,0.70
2023-04-19T08:00:02.065Z,0.70
2023-04-19T08:02:30.140Z,0.60
2023-04-19T08:04:59.291Z,0.60
2023-04-19T08:07:27.360Z,0.60
2023-04-19T08:09:55.810Z,0.60
2023-04-19T08:12:36.376Z,0.70
2023-04-19T08:15:36.131Z,0.60
2023-04-19T08:18:00.625Z,0.70
2023-04-19T08:20:28.878Z,0.60
2023-04-19T08:22:57.886Z,0.70
2023-04-19T08:25:28.644Z,0.70
2023-04-19T08:27:57.503Z,0.63
2023-04-19T08:30:29.712Z,0.70
2023-04-19T08:32:57.746Z,0.70
2023-04-19T08:35:26.182Z,0.70
2023-04-19T08:37:54.247Z,0.60
2023-04-19T08:40:22.183Z,0.60
2023-04-19T08:42:50.185Z,0.70
2023-04-19T08:45:27.870Z,0.70
2023-04-19T08:48:01.735Z,0.60
2023-04-19T08:50:35.983Z,0.60
2023-04-19T08:53:24.059Z,0.60
2023-04-19T08:56:12.956Z,0.70
2023-04-19T09:04:03.436Z,0.60
2023-04-19T09:06:37.494Z,0.60
2023-04-19T09:09:34.043Z,0.70
2023-04-19T09:12:16.739Z,0.70
2023-04-19T09:14:59.838Z,0.70
2023-04-19T09:17:29.044Z,0.70
2023-04-19T09:19:59.478Z,0.60
2023-04-19T09:22:27.990Z,0.70
2023-04-19T09:27:29.468Z,0.60
2023-04-19T09:29:58.727Z,0.60
2023-04-19T09:32:27.376Z,0.50
2023-04-19T09:34:58.873Z,0.40
2023-04-19T09:39:58.538Z,0.30
2023-04-19T09:43:05.331Z,0.30
2023-04-19T09:45:44.197Z,0.30
2023-04-19T09:48:13.388Z,0.40
2023-04-19T09:51:03.308Z,0.30
2023-04-19T09:53:35.006Z,0.30
2023-04-19T09:56:04.281Z,0.30
2023-04-19T09:58:46.927Z,0.30
2023-04-19T10:01:20.053Z,0.40
2023-04-19T10:03:50.878Z,0.30
2023-04-19T10:08:54.635Z,0.30
2023-04-19T10:11:23.712Z,0.40
2023-04-19T10:13:56.356Z,0.30
2023-04-19T10:16:24.820Z,0.30
2023-04-19T10:18:54.075Z,0.30
2023-04-19T10:21:24.116Z,0.30
2023-04-19T10:23:52.187Z,0.30
2023-04-19T10:26:20.172Z,0.37
2023-04-19T10:28:49.119Z,0.30
2023-04-19T10:31:17.416Z,0.30
2023-04-19T10:33:45.349Z,0.30
2023-04-19T10:36:17.881Z,0.30
2023-04-19T10:38:48.451Z,0.30
2023-04-19T10:41:18.220Z,0.30
2023-04-19T10:43:48.559Z,0.30
2023-04-19T10:46:18.824Z,0.30
2023-04-19T10:48:57.410Z,0.30
2023-04-19T10:51:28.299Z,0.30
2023-04-19T10:54:01.916Z,0.20
2023-04-19T10:56:59.441Z,0.20
2023-04-19T10:59:28.240Z,0.30
2023-04-19T11:01:59.771Z,0.27
2023-04-19T11:05:02.385Z,0.30
2023-04-19T11:07:37.635Z,0.30
2023-04-19T11:10:11.645Z,0.30
2023-04-19T11:12:43.989Z,0.30
2023-04-19T11:15:12.294Z,0.30
2023-04-19T11:17:41.808Z,0.40
2023-04-19T11:20:11.744Z,0.30
2023-04-19T11:22:41.247Z,0.30
2023-04-19T11:25:13.331Z,0.30
2023-04-19T11:27:43.129Z,0.30
2023-04-19T11:30:13.558Z,0.30
2023-04-19T11:32:48.419Z,0.30
2023-04-19T11:35:16.920Z,0.30
2023-04-19T11:37:44.950Z,0.30
2023-04-19T11:40:17.934Z,0.30
2023-04-19T11:42:46.709Z,0.30
2023-04-19T11:45:30.177Z,0.20
2023-04-19T11:47:59.903Z,0.30
2023-04-19T11:50:38.915Z,0.30
2023-04-19T11:53:15.464Z,0.30
2023-04-19T11:55:46.101Z,0.30
2023-04-19T11:58:29.163Z,0.30
2023-04-19T12:00:58.486Z,0.30
2023-04-19T12:03:26.944Z,0.30
2023-04-19T12:05:57.096Z,0.30
2023-04-19T12:08:32.926Z,0.30
2023-04-19T12:11:03.602Z,0.30
2023-04-19T12:13:32.546Z,0.30
2023-04-19T12:16:01.666Z,0.20
2023-04-19T12:18:29.916Z,0.30
2023-04-19T12:21:00.109Z,0.30
2023-04-19T12:23:29.150Z,0.23
2023-04-19T12:25:57.317Z,0.30
2023-04-19T12:28:26.747Z,0.30
2023-04-19T12:30:54.983Z,0.30
2023-04-19T12:33:24.032Z,0.27
2023-04-19T12:35:51.998Z,0.30
2023-04-19T12:38:19.904Z,0.30
2023-04-19T12:40:47.891Z,0.30
2023-04-19T12:43:15.840Z,0.30
2023-04-19T12:45:45.196Z,0.30
2023-04-19T12:48:13.299Z,0.37
2023-04-19T12:50:41.201Z,0.30
2023-04-19T12:53:09.681Z,0.30
2023-04-19T12:55:37.733Z,0.30
2023-04-19T12:58:05.774Z,0.30
2023-04-19T13:00:33.767Z,0.30
2023-04-19T13:03:04.055Z,0.30
2023-04-19T13:05:32.086Z,0.30
2023-04-19T13:08:00.286Z,0.30
2023-04-19T13:10:28.349Z,0.20
2023-04-19T13:12:56.328Z,0.20
2023-04-19T13:15:24.297Z,0.20
2023-04-19T13:17:52.439Z,0.30
2023-04-19T13:20:21.868Z,0.30
2023-04-19T13:22:50.133Z,0.30
2023-04-19T13:25:18.398Z,0.23
2023-04-19T13:27:47.052Z,0.30
2023-04-19T13:30:15.786Z,0.30
2023-04-19T13:32:44.133Z,0.30
2023-04-19T13:35:12.108Z,0.30
2023-04-19T13:37:44.320Z,0.20
2023-04-19T13:40:21.141Z,0.30
2023-04-19T13:42:49.368Z,0.30
2023-04-19T13:45:17.252Z,0.30
2023-04-19T13:47:45.229Z,0.20
2023-04-19T13:50:15.249Z,0.30
2023-04-19T13:52:44.599Z,0.30
2023-04-19T13:55:12.563Z,0.20
2023-04-19T13:57:40.639Z,0.30
2023-04-19T14:00:09.810Z,0.30
2023-04-19T14:02:37.916Z,0.30
2023-04-19T14:05:06.884Z,0.30
2023-04-19T14:07:35.025Z,0.30
2023-04-19T14:10:04.614Z,0.20
2023-04-19T14:12:32.549Z,0.30
2023-04-19T14:15:00.829Z,0.30
2023-04-19T14:17:29.114Z,0.20
2023-04-19T14:19:57.805Z,0.30
2023-04-19T14:22:25.926Z,0.30
2023-04-19T14:24:53.841Z,0.20
2023-04-19T14:27:23.238Z,0.20
2023-04-19T14:29:51.173Z,0.30
2023-04-19T14:32:25.330Z,0.30
2023-04-19T14:34:55.180Z,0.30
2023-04-19T14:37:24.281Z,0.20
2023-04-19T14:39:52.695Z,0.30
2023-04-19T14:42:22.649Z,0.30
2023-04-19T14:44:53.406Z,0.20
2023-04-19T14:47:24.208Z,0.20
2023-04-19T14:49:52.466Z,0.30
2023-04-19T14:52:21.314Z,0.30
2023-04-19T14:54:49.284Z,0.20
2023-04-19T14:57:18.277Z,0.20
2023-04-19T14:59:46.787Z,0.30
2023-04-19T15:02:16.790Z,0.30
2023-04-19T15:04:44.877Z,0.30
2023-04-19T15:07:13.004Z,0.30
2023-04-19T15:09:41.259Z,0.30
2023-04-19T15:12:09.327Z,0.30
2023-04-19T15:14:37.276Z,0.30
2023-04-19T15:17:05.250Z,0.30
2023-04-19T15:19:34.657Z,0.30
2023-04-19T15:22:04.043Z,0.23
2023-04-19T15:24:32.064Z,0.30
2023-04-19T15:27:02.611Z,0.20
2023-04-19T15:29:30.607Z,0.20
2023-04-19T15:31:58.689Z,0.30
2023-04-19T15:34:26.599Z,0.20
2023-04-19T15:36:55.891Z,0.20
2023-04-19T15:39:24.028Z,0.30
2023-04-19T15:41:52.346Z,0.30
2023-04-19T15:44:20.962Z,0.30
2023-04-19T15:46:48.944Z,0.20
2023-04-19T15:49:18.383Z,0.30
2023-04-19T15:51:46.525Z,0.30
2023-04-19T15:54:16.358Z,0.27
2023-04-19T15:56:44.359Z,0.30
2023-04-19T15:59:12.271Z,0.30
2023-04-19T16:01:40.586Z,0.20
2023-04-19T16:04:08.879Z,0.30
2023-04-19T16:06:41.337Z,0.30
2023-04-19T16:09:09.356Z,0.30
2023-04-19T16:11:39.198Z,0.30
2023-04-19T16:14:07.190Z,0.20
2023-04-19T16:16:35.290Z,0.23
2023-04-19T16:19:03.349Z,0.30
2023-04-19T16:21:31.666Z,0.30
2023-04-19T16:24:00.854Z,0.30
2023-04-19T16:26:28.845Z,0.30
2023-04-19T16:28:59.750Z,0.20
2023-04-19T16:31:28.174Z,0.30
2023-04-19T16:33:56.406Z,0.20
2023-04-19T16:36:24.549Z,0.30
2023-04-19T16:38:52.565Z,0.30
2023-04-19T16:41:21.178Z,0.30
2023-04-19T16:43:49.073Z,0.30
2023-04-19T16:46:19.558Z,0.30
2023-04-19T16:48:47.434Z,0.30
2023-04-19T16:51:15.834Z,0.30
2023-04-19T16:53:45.490Z,0.30
2023-04-19T16:56:13.489Z,0.30
2023-04-19T16:58:41.441Z,0.20
2023-04-19T17:01:10.360Z,0.30
2023-04-19T17:03:39.876Z,0.20
2023-04-19T17:06:10.144Z,0.30
2023-04-19T17:08:40.195Z,0.20
2023-04-19T17:11:08.242Z,0.20
2023-04-19T17:13:36.581Z,0.30
2023-04-19T17:16:05.007Z,0.30
2023-04-19T17:18:33.177Z,0.30
2023-04-19T17:21:02.851Z,0.30
2023-04-19T17:23:31.053Z,0.30
2023-04-19T17:25:58.966Z,0.30
2023-04-19T17:28:27.708Z,0.20
2023-04-19T17:30:56.012Z,0.20
2023-04-19T17:33:24.700Z,0.20
2023-04-19T17:35:52.595Z,0.30
2023-04-19T17:38:22.151Z,0.30
2023-04-19T17:40:50.120Z,0.30
2023-04-19T17:43:18.922Z,0.20
2023-04-19T17:45:46.914Z,0.30
2023-04-19T17:48:15.055Z,0.30
2023-04-19T17:50:42.973Z,0.20
2023-04-19T17:53:10.867Z,0.30
2023-04-19T17:55:40.148Z,0.20
2023-04-19T17:58:08.177Z,0.20
2023-04-19T18:00:36.077Z,0.20
2023-04-19T18:03:04.088Z,0.20
2023-04-19T18:05:32.866Z,0.20
2023-04-19T18:08:01.013Z,0.30
2023-04-19T18:10:29.163Z,0.20
2023-04-19T18:12:58.618Z,0.30
2023-04-19T18:15:26.769Z,0.27
2023-04-19T18:17:54.679Z,0.30
2023-04-19T18:20:22.866Z,0.30
2023-04-19T18:22:51.350Z,0.20
2023-04-19T18:25:20.862Z,0.20
2023-04-19T18:27:50.366Z,0.27
2023-04-19T18:30:21.419Z,0.20
2023-04-19T18:32:49.328Z,0.30
2023-04-19T18:35:18.455Z,0.30
2023-04-19T18:37:46.353Z,0.20
2023-04-19T18:40:14.592Z,0.20
2023-04-19T18:42:42.601Z,0.20
2023-04-19T18:45:11.719Z,0.20
2023-04-19T18:47:41.153Z,0.20
2023-04-19T18:50:10.554Z,0.20
2023-04-19T18:52:38.774Z,0.20
2023-04-19T18:55:07.735Z,0.20
2023-04-19T18:57:35.839Z,0.20
2023-04-19T19:00:06.055Z,0.27
2023-04-19T19:02:36.526Z,0.30
2023-04-19T19:05:08.173Z,0.20
2023-04-19T19:07:37.973Z,0.30
2023-04-19T19:10:18.295Z,0.30
2023-04-19T19:12:48.843Z,0.30
2023-04-19T19:15:16.971Z,0.30
2023-04-19T19:17:49.213Z,0.20
2023-04-19T19:20:21.047Z,0.20
2023-04-19T19:22:52.177Z,0.30
2023-04-19T19:25:21.183Z,0.20
2023-04-19T19:28:06.336Z,0.30
2023-04-19T19:30:39.812Z,0.20
2023-04-19T19:33:08.161Z,0.20
2023-04-19T19:38:06.673Z,0.30
2023-04-19T19:40:34.746Z,0.20
2023-04-19T19:43:03.371Z,0.30
2023-04-19T19:45:32.251Z,0.30
2023-04-19T19:48:00.732Z,0.30
2023-04-19T19:53:04.397Z,0.30
2023-04-19T19:55:32.522Z,0.20
2023-04-19T19:58:32.606Z,0.20
2023-04-19T20:00:52.658Z,0.30
2023-04-19T20:03:36.215Z,0.30
2023-04-19T20:08:44.251Z,0.30
2023-04-19T20:11:12.978Z,0.30
2023-04-19T20:13:40.885Z,0.20
2023-04-19T20:16:10.069Z,0.20
2023-04-19T20:18:42.431Z,0.23
2023-04-19T20:21:11.279Z,0.20
2023-04-19T20:23:47.607Z,0.30
2023-04-19T20:26:15.687Z,0.30
2023-04-19T20:28:46.393Z,0.23
2023-04-19T20:31:14.343Z,0.30
2023-04-19T20:33:42.380Z,0.20
2023-04-19T20:36:10.984Z,0.30
2023-04-19T20:38:39.855Z,0.20
2023-04-19T20:41:09.568Z,0.20
2023-04-19T20:43:37.555Z,0.20
2023-04-19T20:46:06.995Z,0.20
2023-04-19T20:48:35.132Z,0.30
2023-04-19T20:51:03.197Z,0.27
2023-04-19T20:53:31.459Z,0.20
2023-04-19T20:55:59.421Z,0.20
2023-04-19T20:58:28.938Z,0.20
2023-04-19T21:00:56.864Z,0.30
2023-04-19T21:03:24.832Z,0.30
2023-04-19T21:05:53.261Z,0.20
2023-04-19T21:08:21.441Z,0.20
2023-04-19T21:10:49.405Z,0.23
2023-04-19T21:13:17.443Z,0.30
2023-04-19T21:15:47.083Z,0.30
2023-04-19T21:18:15.219Z,0.30
2023-04-19T21:20:43.429Z,0.20
2023-04-19T21:23:11.310Z,0.20
2023-04-19T21:25:39.311Z,0.20
2023-04-19T21:28:07.524Z,0.20
2023-04-19T21:30:40.707Z,0.30
2023-04-19T21:33:10.213Z,0.30
2023-04-19T21:35:38.338Z,0.20
2023-04-19T21:38:06.749Z,0.30
2023-04-19T21:40:37.826Z,0.20
2023-04-19T21:43:05.983Z,0.20
2023-04-19T21:45:33.949Z,0.20
2023-04-19T21:48:05.595Z,0.30
2023-04-19T21:50:37.302Z,0.20
2023-04-19T21:53:05.203Z,0.30
2023-04-19T21:55:34.665Z,0.30
2023-04-19T21:58:03.205Z,0.20
2023-04-19T22:00:31.577Z,0.20
2023-04-19T22:02:59.908Z,0.20
2023-04-19T22:05:28.182Z,0.30
2023-04-19T22:07:59.017Z,0.20
2023-04-19T22:10:28.238Z,0.30
2023-04-19T22:12:58.715Z,0.20
2023-04-19T22:15:27.988Z,0.30
2023-04-19T22:17:57.326Z,0.30
2023-04-19T22:20:26.847Z,0.30
2023-04-19T22:22:55.055Z,0.20
2023-04-19T22:25:24.560Z,0.20
2023-04-19T22:27:52.741Z,0.20
2023-04-19T22:30:20.879Z,0.30
2023-04-19T22:32:49.568Z,0.20
2023-04-19T22:35:17.683Z,0.20
2023-04-19T22:37:46.068Z,0.30
2023-04-19T22:40:17.671Z,0.30
2023-04-19T22:42:47.169Z,0.20
2023-04-19T22:45:24.385Z,0.20
2023-04-19T22:47:52.479Z,0.20
2023-04-19T22:50:25.625Z,0.30
2023-04-19T22:52:56.337Z,0.30
2023-04-19T22:55:27.501Z,0.20
2023-04-19T22:57:59.596Z,0.20
2023-04-19T23:00:27.920Z,0.30
2023-04-19T23:02:56.188Z,0.20
2023-04-19T23:05:26.047Z,0.30
2023-04-19T23:07:55.034Z,0.20
2023-04-19T23:10:26.010Z,0.20
2023-04-19T23:12:54.996Z,0.20
2023-04-19T23:15:25.093Z,0.30
2023-04-19T23:17:54.364Z,0.20
2023-04-19T23:20:22.789Z,0.30
2023-04-19T23:22:50.975Z,0.20
2023-04-19T23:25:18.940Z,0.30
2023-04-19T23:27:53.042Z,0.20
2023-04-19T23:30:21.437Z,0.20
2023-04-19T23:32:50.871Z,0.23
2023-04-19T23:35:18.890Z,0.30
2023-04-19T23:37:47.281Z,0.20
2023-04-19T23:40:15.208Z,0.20
2023-04-19T23:42:43.134Z,0.20
2023-04-19T23:45:11.596Z,0.30
2023-04-19T23:47:39.695Z,0.20
2023-04-19T23:50:10.237Z,0.20
2023-04-19T23:52:38.206Z,0.20
2023-04-19T23:55:09.496Z,0.20
2023-04-19T23:57:37.493Z,0.20
